Time,TemperatureF,DewpointF,PressureIn,WindDirection,WindDirectionDegrees,WindSpeedMPH,WindSpeedGustMPH,Humidity,HourlyPrecipIn,Conditions,Clouds,dailyrainin,SoftwareType,DateUTC
2013-01-22 00:00:00,52.5,26.4,27.49,SSE,158,0.0,0.0,36,0.00,,---,0.00,VWS V14.01,2013-01-22 07:00:00,
2013-01-22 00:05:00,52.5,26.4,27.49,SSE,158,0.0,0.0,36,0.00,,---,0.00,VWS V14.01,2013-01-22 07:05:00,
2013-01-22 00:10:00,52.5,26.4,27.49,SE,135,0.0,0.0,36,0.00,,---,0.00,VWS V14.01,2013-01-22 07:10:00,
2013-01-22 00:16:00,48.7,25.5,27.49,SE,135,0.0,0.0,40,0.00,,---,0.00,VWS V14.01,2013-01-22 07:16:00,
2013-01-22 00:21:00,48.7,25.5,27.49,SSE,158,0.0,0.0,40,0.00,,---,0.00,VWS V14.01,2013-01-22 07:21:00,
2013-01-22 00:26:00,48.7,26.1,27.49,SE,135,0.0,0.0,41,0.00,,---,0.00,VWS V14.01,2013-01-22 07:26:00,
2013-01-22 00:31:00,48.7,26.1,27.49,SE,135,0.0,0.0,41,0.00,,---,0.00,VWS V14.01,2013-01-22 07:31:00,
2013-01-22 00:36:00,48.4,25.8,27.49,SE,135,0.0,0.0,41,0.00,,---,0.00,VWS V14.01,2013-01-22 07:36:00,
2013-01-22 00:41:00,48.0,26.0,27.49,SE,135,0.0,0.0,42,0.00,,---,0.00,VWS V14.01,2013-01-22 07:41:00,
2013-01-22 00:46:00,48.0,26.0,27.49,SE,135,0.0,0.0,42,0.00,,---,0.00,VWS V14.01,2013-01-22 07:46:00,
2013-01-22 00:51:00,48.0,26.0,27.49,SE,135,0.0,0.0,42,0.00,,---,0.00,VWS V14.01,2013-01-22 07:51:00,
2013-01-22 00:56:00,46.9,26.2,27.49,SSE,158,0.0,0.0,44,0.00,,---,0.00,VWS V14.01,2013-01-22 07:56:00,
2013-01-22 01:01:00,46.9,26.2,27.49,ESE,112,0.0,0.0,44,0.00,,---,0.00,VWS V14.01,2013-01-22 08:01:00,
2013-01-22 01:07:00,46.9,26.7,27.49,SSE,158,0.0,0.0,45,0.00,,---,0.00,VWS V14.01,2013-01-22 08:07:00,
2013-01-22 01:12:00,47.5,27.2,27.49,SSW,202,0.0,0.0,45,0.00,,---,0.00,VWS V14.01,2013-01-22 08:12:00,
2013-01-22 01:17:00,47.5,27.2,27.49,SW,225,0.0,0.0,45,0.00,,---,0.00,VWS V14.01,2013-01-22 08:17:00,
2013-01-22 01:22:00,46.9,26.7,27.49,SSE,158,0.0,0.0,45,0.00,,---,0.00,VWS V14.01,2013-01-22 08:22:00,
2013-01-22 01:27:00,46.9,26.7,27.49,SSE,158,0.0,0.0,45,0.00,,---,0.00,VWS V14.01,2013-01-22 08:27:00,
2013-01-22 01:32:00,46.4,26.2,27.49,SSE,158,0.0,0.0,45,0.00,,---,0.00,VWS V14.01,2013-01-22 08:32:00,
2013-01-22 01:37:00,46.2,26.6,27.49,SSE,158,0.0,0.0,46,0.00,,---,0.00,VWS V14.01,2013-01-22 08:37:00,
2013-01-22 01:43:00,46.2,26.6,27.49,SSE,158,0.0,0.0,46,0.00,,---,0.00,VWS V14.01,2013-01-22 08:43:00,
2013-01-22 01:48:00,45.7,26.6,27.49,East,90,0.0,0.0,47,0.00,,---,0.00,VWS V14.01,2013-01-22 08:48:00,
2013-01-22 01:53:00,45.7,26.6,27.49,East,90,0.0,0.0,47,0.00,,---,0.00,VWS V14.01,2013-01-22 08:53:00,
2013-01-22 01:58:00,45.7,26.6,27.49,East,90,0.0,0.0,47,0.00,,---,0.00,VWS V14.01,2013-01-22 08:58:00,
2013-01-22 02:03:00,45.3,26.8,27.49,East,90,0.0,0.0,48,0.00,,---,0.00,VWS V14.01,2013-01-22 09:03:00,
2013-01-22 02:08:00,45.3,26.8,27.49,East,90,0.0,0.0,48,0.00,,---,0.00,VWS V14.01,2013-01-22 09:08:00,
2013-01-22 02:13:00,45.3,26.8,27.52,East,90,0.0,0.0,48,0.00,,---,0.00,VWS V14.01,2013-01-22 09:13:00,
2013-01-22 02:18:00,45.3,26.8,27.52,East,90,0.0,0.0,48,0.00,,---,0.00,VWS V14.01,2013-01-22 09:18:00,
2013-01-22 02:23:00,44.6,27.1,27.52,East,90,0.0,0.0,50,0.00,,---,0.00,VWS V14.01,2013-01-22 09:23:00,
2013-01-22 02:28:00,44.2,26.8,27.52,East,90,0.0,0.0,50,0.00,,---,0.00,VWS V14.01,2013-01-22 09:28:00,
2013-01-22 02:34:00,44.2,26.8,27.52,East,90,0.0,0.0,50,0.00,,---,0.00,VWS V14.01,2013-01-22 09:34:00,
2013-01-22 02:39:00,44.2,26.8,27.52,East,90,0.0,0.0,50,0.00,,---,0.00,VWS V14.01,2013-01-22 09:39:00,
2013-01-22 02:44:00,44.2,26.8,27.52,East,90,0.0,0.0,50,0.00,,---,0.00,VWS V14.01,2013-01-22 09:44:00,
2013-01-22 02:49:00,44.2,26.8,27.52,East,90,0.0,0.0,50,0.00,,---,0.00,VWS V14.01,2013-01-22 09:49:00,
2013-01-22 02:54:00,42.6,26.7,27.52,East,90,0.0,0.0,53,0.00,,---,0.00,VWS V14.01,2013-01-22 09:54:00,
2013-01-22 02:59:00,42.6,26.7,27.52,East,90,0.0,0.0,53,0.00,,---,0.00,VWS V14.01,2013-01-22 09:59:00,
2013-01-22 03:04:00,42.4,27.0,27.52,East,90,0.0,0.0,54,0.00,,---,0.00,VWS V14.01,2013-01-22 10:04:00,
2013-01-22 03:09:00,42.4,27.4,27.52,East,90,0.0,0.0,55,0.00,,---,0.00,VWS V14.01,2013-01-22 10:09:00,
2013-01-22 03:14:00,42.4,27.4,27.52,East,90,0.0,0.0,55,0.00,,---,0.00,VWS V14.01,2013-01-22 10:14:00,
2013-01-22 03:19:00,42.4,27.9,27.52,East,90,0.0,0.0,56,0.00,,---,0.00,VWS V14.01,2013-01-22 10:19:00,
2013-01-22 03:24:00,42.3,27.7,27.52,East,90,0.0,0.0,56,0.00,,---,0.00,VWS V14.01,2013-01-22 10:24:00,
2013-01-22 03:30:00,42.3,27.7,27.52,SSW,202,0.0,0.0,56,0.00,,---,0.00,VWS V14.01,2013-01-22 10:30:00,
2013-01-22 03:35:00,42.3,27.7,27.52,SSW,202,0.0,0.0,56,0.00,,---,0.00,VWS V14.01,2013-01-22 10:35:00,
2013-01-22 03:40:00,42.3,27.7,27.52,SSW,202,0.0,0.0,56,0.00,,---,0.00,VWS V14.01,2013-01-22 10:40:00,
2013-01-22 03:45:00,41.9,27.8,27.52,SSW,202,0.0,0.0,57,0.00,,---,0.00,VWS V14.01,2013-01-22 10:45:00,
2013-01-22 03:50:00,42.1,28.0,27.52,ESE,112,0.0,0.0,57,0.00,,---,0.00,VWS V14.01,2013-01-22 10:50:00,
2013-01-22 03:55:00,42.1,28.0,27.52,SSW,202,0.0,0.0,57,0.00,,---,0.00,VWS V14.01,2013-01-22 10:55:00,
2013-01-22 04:00:00,42.1,28.0,27.52,SE,135,0.0,0.0,57,0.00,,---,0.00,VWS V14.01,2013-01-22 11:00:00,
2013-01-22 04:05:00,42.1,28.0,27.52,SSE,158,0.0,0.0,57,0.00,,---,0.00,VWS V14.01,2013-01-22 11:05:00,
2013-01-22 04:10:00,41.7,27.6,27.52,SE,135,0.0,0.0,57,0.00,,---,0.00,VWS V14.01,2013-01-22 11:10:00,
2013-01-22 04:16:00,41.7,27.6,27.52,SW,225,0.0,0.0,57,0.00,,---,0.00,VWS V14.01,2013-01-22 11:16:00,
2013-01-22 04:21:00,41.7,27.6,27.52,SW,225,0.0,0.0,57,0.00,,---,0.00,VWS V14.01,2013-01-22 11:21:00,
2013-01-22 04:26:00,42.1,27.5,27.52,SSE,158,0.0,0.0,56,0.00,,---,0.00,VWS V14.01,2013-01-22 11:26:00,
2013-01-22 04:31:00,42.1,27.5,27.49,SSE,158,0.0,0.0,56,0.00,,---,0.00,VWS V14.01,2013-01-22 11:31:00,
2013-01-22 04:36:00,42.1,27.5,27.49,ENE,68,0.0,0.0,56,0.00,,---,0.00,VWS V14.01,2013-01-22 11:36:00,
2013-01-22 04:42:00,42.1,27.5,27.49,ENE,68,0.0,0.0,56,0.00,,---,0.00,VWS V14.01,2013-01-22 11:42:00,
2013-01-22 04:47:00,42.1,27.5,27.52,ENE,68,0.0,0.0,56,0.00,,---,0.00,VWS V14.01,2013-01-22 11:47:00,
2013-01-22 04:52:00,42.1,27.5,27.52,ENE,68,0.0,0.0,56,0.00,,---,0.00,VWS V14.01,2013-01-22 11:52:00,
2013-01-22 04:57:00,42.1,27.5,27.49,ENE,68,0.0,0.0,56,0.00,,---,0.00,VWS V14.01,2013-01-22 11:57:00,
2013-01-22 05:02:00,42.1,27.1,27.49,ENE,68,0.0,0.0,55,0.00,,---,0.00,VWS V14.01,2013-01-22 12:02:00,
2013-01-22 05:07:00,42.1,27.5,27.49,ENE,68,0.0,0.0,56,0.00,,---,0.00,VWS V14.01,2013-01-22 12:07:00,
2013-01-22 05:12:00,41.7,27.2,27.52,ENE,68,0.0,0.0,56,0.00,,---,0.00,VWS V14.01,2013-01-22 12:12:00,
2013-01-22 05:17:00,41.7,27.2,27.52,ENE,68,0.0,0.0,56,0.00,,---,0.00,VWS V14.01,2013-01-22 12:17:00,
2013-01-22 05:22:00,41.2,26.7,27.52,ENE,68,0.0,0.0,56,0.00,,---,0.00,VWS V14.01,2013-01-22 12:22:00,
2013-01-22 05:27:00,41.2,26.7,27.52,ENE,68,0.0,0.0,56,0.00,,---,0.00,VWS V14.01,2013-01-22 12:27:00,
2013-01-22 05:33:00,41.2,26.7,27.52,ENE,68,0.0,0.0,56,0.00,,---,0.00,VWS V14.01,2013-01-22 12:33:00,
2013-01-22 05:38:00,41.2,26.7,27.52,ESE,112,0.0,0.0,56,0.00,,---,0.00,VWS V14.01,2013-01-22 12:38:00,
2013-01-22 05:43:00,41.2,26.7,27.52,ESE,112,0.0,0.0,56,0.00,,---,0.00,VWS V14.01,2013-01-22 12:43:00,
2013-01-22 05:48:00,40.5,27.7,27.52,ESE,112,0.0,0.0,60,0.00,,---,0.00,VWS V14.01,2013-01-22 12:48:00,
2013-01-22 05:53:00,40.5,27.7,27.52,ESE,112,0.0,0.0,60,0.00,,---,0.00,VWS V14.01,2013-01-22 12:53:00,
2013-01-22 05:58:00,40.3,27.9,27.52,South,180,0.0,0.0,61,0.00,,---,0.00,VWS V14.01,2013-01-22 12:58:00,
2013-01-22 06:04:00,40.5,28.5,27.52,SE,135,0.0,0.0,62,0.00,,---,0.00,VWS V14.01,2013-01-22 13:04:00,
2013-01-22 06:09:00,40.5,28.5,27.52,SE,135,0.0,0.0,62,0.00,,---,0.00,VWS V14.01,2013-01-22 13:09:00,
2013-01-22 06:14:00,40.5,28.5,27.52,SE,135,0.0,0.0,62,0.00,,---,0.00,VWS V14.01,2013-01-22 13:14:00,
2013-01-22 06:19:00,40.5,28.5,27.52,SE,135,0.0,0.0,62,0.00,,---,0.00,VWS V14.01,2013-01-22 13:19:00,
2013-01-22 06:24:00,40.5,28.5,27.52,East,90,0.0,0.0,62,0.00,,---,0.00,VWS V14.01,2013-01-22 13:24:00,
2013-01-22 06:29:00,39.7,28.6,27.52,East,90,0.0,0.0,64,0.00,,---,0.00,VWS V14.01,2013-01-22 13:29:00,
2013-01-22 06:35:00,39.7,28.6,27.52,South,180,0.0,0.0,64,0.00,,---,0.00,VWS V14.01,2013-01-22 13:35:00,
2013-01-22 06:40:00,39.7,28.6,27.52,South,180,0.0,0.0,64,0.00,,---,0.00,VWS V14.01,2013-01-22 13:40:00,
2013-01-22 06:45:00,39.7,28.6,27.52,SSW,202,0.0,0.0,64,0.00,,---,0.00,VWS V14.01,2013-01-22 13:45:00,
2013-01-22 06:50:00,39.9,28.4,27.52,South,180,0.0,0.0,63,0.00,,---,0.00,VWS V14.01,2013-01-22 13:50:00,
2013-01-22 06:55:00,39.9,28.4,27.52,East,90,0.0,0.0,63,0.00,,---,0.00,VWS V14.01,2013-01-22 13:55:00,
2013-01-22 07:00:00,39.9,28.4,27.52,East,90,0.0,0.0,63,0.00,,---,0.00,VWS V14.01,2013-01-22 14:00:00,
2013-01-22 07:05:00,39.9,28.4,27.52,SE,135,0.0,2.2,63,0.00,,---,0.00,VWS V14.01,2013-01-22 14:05:00,
2013-01-22 07:10:00,39.9,28.4,27.52,SSE,158,0.0,0.0,63,0.00,,---,0.00,VWS V14.01,2013-01-22 14:10:00,
2013-01-22 07:15:00,39.9,28.4,27.55,South,180,2.2,2.2,63,0.00,,---,0.00,VWS V14.01,2013-01-22 14:15:00,
2013-01-22 07:20:00,41.7,27.2,27.55,East,90,0.0,0.0,56,0.00,,---,0.00,VWS V14.01,2013-01-22 14:20:00,
2013-01-22 07:25:00,41.4,26.9,27.55,East,90,0.0,0.0,56,0.00,,---,0.00,VWS V14.01,2013-01-22 14:25:00,
2013-01-22 07:30:00,41.4,26.9,27.55,East,90,0.0,0.0,56,0.00,,---,0.00,VWS V14.01,2013-01-22 14:30:00,
2013-01-22 07:35:00,41.4,26.9,27.55,East,90,0.0,0.0,56,0.00,,---,0.00,VWS V14.01,2013-01-22 14:35:00,
2013-01-22 07:40:00,40.5,27.3,27.55,SSW,202,0.0,0.0,59,0.00,,---,0.00,VWS V14.01,2013-01-22 14:40:00,
2013-01-22 07:45:00,40.5,27.3,27.55,SSW,202,0.0,0.0,59,0.00,,---,0.00,VWS V14.01,2013-01-22 14:45:00,
2013-01-22 07:50:00,40.5,27.3,27.55,SSW,202,0.0,0.0,59,0.00,,---,0.00,VWS V14.01,2013-01-22 14:50:00,
2013-01-22 07:55:00,41.0,28.2,27.55,South,180,0.0,0.0,60,0.00,,---,0.00,VWS V14.01,2013-01-22 14:55:00,
2013-01-22 08:00:00,42.1,28.8,27.52,South,180,0.0,0.0,59,0.00,,---,0.00,VWS V14.01,2013-01-22 15:00:00,
2013-01-22 08:05:00,42.1,28.8,27.52,East,90,0.0,0.0,59,0.00,,---,0.00,VWS V14.01,2013-01-22 15:05:00,
2013-01-22 08:10:00,42.1,28.8,27.52,SE,135,0.0,0.0,59,0.00,,---,0.00,VWS V14.01,2013-01-22 15:10:00,
2013-01-22 08:15:00,42.1,28.8,27.52,ESE,112,0.0,0.0,59,0.00,,---,0.00,VWS V14.01,2013-01-22 15:15:00,
2013-01-22 08:21:00,42.1,28.8,27.52,SE,135,3.1,3.1,59,0.00,,---,0.00,VWS V14.01,2013-01-22 15:21:00,
2013-01-22 08:26:00,42.1,28.8,27.52,ESE,112,2.2,2.2,59,0.00,,---,0.00,VWS V14.01,2013-01-22 15:26:00,
2013-01-22 08:31:00,42.1,28.8,27.55,East,90,2.7,2.7,59,0.00,,---,0.00,VWS V14.01,2013-01-22 15:31:00,
2013-01-22 08:36:00,50.2,28.0,27.55,ESE,112,2.7,2.7,42,0.00,,---,0.00,VWS V14.01,2013-01-22 15:36:00,
2013-01-22 08:41:00,50.2,28.0,27.55,East,90,0.0,0.0,42,0.00,,---,0.00,VWS V14.01,2013-01-22 15:41:00,
2013-01-22 08:46:00,50.2,28.0,27.55,East,90,3.1,3.1,42,0.00,,---,0.00,VWS V14.01,2013-01-22 15:46:00,
2013-01-22 08:52:00,50.2,28.0,27.55,ESE,112,2.7,2.7,42,0.00,,---,0.00,VWS V14.01,2013-01-22 15:52:00,
2013-01-22 08:57:00,50.2,28.0,27.55,East,90,2.7,2.7,42,0.00,,---,0.00,VWS V14.01,2013-01-22 15:57:00,
2013-01-22 09:02:00,50.2,28.0,27.55,SE,135,0.0,0.0,42,0.00,,---,0.00,VWS V14.01,2013-01-22 16:02:00,
2013-01-22 09:07:00,50.2,28.0,27.55,ESE,112,0.0,0.0,42,0.00,,---,0.00,VWS V14.01,2013-01-22 16:07:00,
2013-01-22 09:12:00,50.2,28.0,27.55,East,90,0.0,0.0,42,0.00,,---,0.00,VWS V14.01,2013-01-22 16:12:00,
2013-01-22 09:17:00,57.4,30.0,27.55,East,90,0.0,0.0,35,0.00,,---,0.00,VWS V14.01,2013-01-22 16:17:00,
2013-01-22 09:22:00,59.2,30.9,27.55,East,90,0.0,0.0,34,0.00,,---,0.00,VWS V14.01,2013-01-22 16:22:00,
2013-01-22 09:27:00,60.4,31.2,27.55,SE,135,0.0,0.0,33,0.00,,---,0.00,VWS V14.01,2013-01-22 16:27:00,
2013-01-22 09:32:00,61.0,30.9,27.55,East,90,0.0,0.0,32,0.00,,---,0.00,VWS V14.01,2013-01-22 16:32:00,
2013-01-22 09:37:00,61.0,30.9,27.55,East,90,0.0,0.0,32,0.00,,---,0.00,VWS V14.01,2013-01-22 16:37:00,
2013-01-22 09:43:00,61.0,30.9,27.55,East,90,0.0,0.0,32,0.00,,---,0.00,VWS V14.01,2013-01-22 16:43:00,
2013-01-22 09:48:00,61.0,30.9,27.55,East,90,0.0,0.0,32,0.00,,---,0.00,VWS V14.01,2013-01-22 16:48:00,
2013-01-22 09:53:00,61.0,30.9,27.55,North,0,0.0,0.0,32,0.00,,---,0.00,VWS V14.01,2013-01-22 16:53:00,
2013-01-22 09:58:00,64.0,30.3,27.55,North,0,0.0,0.0,28,0.00,,---,0.00,VWS V14.01,2013-01-22 16:58:00,
2013-01-22 10:03:00,63.3,29.7,27.55,NW,315,0.0,2.2,28,0.00,,---,0.00,VWS V14.01,2013-01-22 17:03:00,
2013-01-22 10:08:00,63.3,29.7,27.55,NNW,338,0.0,0.0,28,0.00,,---,0.00,VWS V14.01,2013-01-22 17:08:00,
2013-01-22 10:13:00,63.3,29.7,27.55,West,270,0.0,0.0,28,0.00,,---,0.00,VWS V14.01,2013-01-22 17:13:00,
2013-01-22 10:18:00,63.3,29.7,27.55,North,0,0.0,0.0,28,0.00,,---,0.00,VWS V14.01,2013-01-22 17:18:00,
2013-01-22 10:23:00,65.1,30.3,27.55,North,0,2.7,2.7,27,0.00,,---,0.00,VWS V14.01,2013-01-22 17:23:00,
2013-01-22 10:29:00,65.1,30.3,27.55,NNE,22,3.1,3.1,27,0.00,,---,0.00,VWS V14.01,2013-01-22 17:29:00,
2013-01-22 10:34:00,65.1,30.3,27.55,ENE,68,0.0,2.7,27,0.00,,---,0.00,VWS V14.01,2013-01-22 17:34:00,
2013-01-22 10:39:00,65.1,30.3,27.55,North,0,3.1,3.1,27,0.00,,---,0.00,VWS V14.01,2013-01-22 17:39:00,
2013-01-22 10:44:00,66.4,29.5,27.55,WSW,248,2.7,2.7,25,0.00,,---,0.00,VWS V14.01,2013-01-22 17:44:00,
2013-01-22 10:49:00,66.4,29.5,27.55,NNW,338,0.0,0.0,25,0.00,,---,0.00,VWS V14.01,2013-01-22 17:49:00,
2013-01-22 10:54:00,66.4,29.5,27.55,West,270,2.2,2.2,25,0.00,,---,0.00,VWS V14.01,2013-01-22 17:54:00,
2013-01-22 10:59:00,66.4,29.5,27.55,North,0,2.2,2.2,25,0.00,,---,0.00,VWS V14.01,2013-01-22 17:59:00,
2013-01-22 11:04:00,66.4,29.5,27.55,NNE,22,0.0,2.2,25,0.00,,---,0.00,VWS V14.01,2013-01-22 18:04:00,
2013-01-22 11:09:00,66.4,29.5,27.55,NW,315,0.0,2.7,25,0.00,,---,0.00,VWS V14.01,2013-01-22 18:09:00,
2013-01-22 11:14:00,71.4,31.7,27.55,ENE,68,0.0,0.0,23,0.00,,---,0.00,VWS V14.01,2013-01-22 18:14:00,
2013-01-22 11:19:00,71.4,31.7,27.55,North,0,3.6,3.6,23,0.00,,---,0.00,VWS V14.01,2013-01-22 18:19:00,
2013-01-22 11:25:00,72.1,31.2,27.55,NNW,338,2.7,2.7,22,0.00,,---,0.00,VWS V14.01,2013-01-22 18:25:00,
2013-01-22 11:30:00,72.7,31.7,27.55,West,270,2.2,2.2,22,0.00,,---,0.00,VWS V14.01,2013-01-22 18:30:00,
2013-01-22 11:35:00,72.9,31.8,27.55,South,180,0.0,0.0,22,0.00,,---,0.00,VWS V14.01,2013-01-22 18:35:00,
2013-01-22 11:40:00,72.9,31.8,27.55,SE,135,0.0,0.0,22,0.00,,---,0.00,VWS V14.01,2013-01-22 18:40:00,
2013-01-22 11:45:00,72.9,31.8,27.52,WNW,292,3.1,3.1,22,0.00,,---,0.00,VWS V14.01,2013-01-22 18:45:00,
2013-01-22 11:50:00,72.9,31.8,27.52,North,0,2.7,2.7,22,0.00,,---,0.00,VWS V14.01,2013-01-22 18:50:00,
2013-01-22 11:55:00,72.9,31.8,27.52,WNW,292,2.7,2.7,22,0.00,,---,0.00,VWS V14.01,2013-01-22 18:55:00,
2013-01-22 12:00:00,72.9,31.8,27.52,NNE,22,3.1,4.0,22,0.00,,---,0.00,VWS V14.01,2013-01-22 19:00:00,
2013-01-22 12:05:00,76.5,33.7,27.52,NNW,338,0.0,0.0,21,0.00,,---,0.00,VWS V14.01,2013-01-22 19:05:00,
2013-01-22 12:10:00,75.9,33.2,27.52,NNE,22,3.1,4.5,21,0.00,,---,0.00,VWS V14.01,2013-01-22 19:10:00,
2013-01-22 12:15:00,75.9,33.2,27.52,NE,45,2.2,2.2,21,0.00,,---,0.00,VWS V14.01,2013-01-22 19:15:00,
2013-01-22 12:21:00,75.9,33.2,27.52,NNW,338,0.0,4.0,21,0.00,,---,0.00,VWS V14.01,2013-01-22 19:21:00,
2013-01-22 12:26:00,75.9,33.2,27.52,WNW,292,3.1,4.0,21,0.00,,---,0.00,VWS V14.01,2013-01-22 19:26:00,
2013-01-22 12:31:00,76.3,33.5,27.52,NW,315,3.1,3.1,21,0.00,,---,0.00,VWS V14.01,2013-01-22 19:31:00,
2013-01-22 12:36:00,76.3,33.5,27.52,NE,45,2.2,2.2,21,0.00,,---,0.00,VWS V14.01,2013-01-22 19:36:00,
2013-01-22 12:42:00,76.3,33.5,27.49,North,0,2.7,2.7,21,0.00,,---,0.00,VWS V14.01,2013-01-22 19:42:00,
2013-01-22 12:47:00,76.3,33.5,27.49,SW,225,0.0,0.0,21,0.00,,---,0.00,VWS V14.01,2013-01-22 19:47:00,
2013-01-22 12:52:00,78.1,33.8,27.49,WNW,292,2.2,2.2,20,0.00,,---,0.00,VWS V14.01,2013-01-22 19:52:00,
2013-01-22 12:57:00,78.1,33.8,27.49,WNW,292,3.6,3.6,20,0.00,,---,0.00,VWS V14.01,2013-01-22 19:57:00,
2013-01-22 13:02:00,79.0,34.5,27.49,WNW,292,4.9,4.9,20,0.00,,---,0.00,VWS V14.01,2013-01-22 20:02:00,
2013-01-22 13:07:00,79.0,34.5,27.49,NE,45,3.1,3.1,20,0.00,,---,0.00,VWS V14.01,2013-01-22 20:07:00,
2013-01-22 13:12:00,79.0,34.5,27.49,NE,45,2.2,2.2,20,0.00,,---,0.00,VWS V14.01,2013-01-22 20:12:00,
2013-01-22 13:17:00,79.2,34.7,27.49,North,0,2.7,2.7,20,0.00,,---,0.00,VWS V14.01,2013-01-22 20:17:00,
2013-01-22 13:22:00,79.2,34.7,27.49,North,0,4.9,4.9,20,0.00,,---,0.00,VWS V14.01,2013-01-22 20:22:00,
2013-01-22 13:27:00,80.2,35.6,27.49,SW,225,3.6,3.6,20,0.00,,---,0.00,VWS V14.01,2013-01-22 20:27:00,
2013-01-22 13:32:00,80.8,34.7,27.49,WNW,292,2.7,2.7,19,0.00,,---,0.00,VWS V14.01,2013-01-22 20:32:00,
2013-01-22 13:38:00,81.1,35.0,27.49,NW,315,2.2,2.2,19,0.00,,---,0.00,VWS V14.01,2013-01-22 20:38:00,
2013-01-22 13:43:00,81.1,35.0,27.49,NNE,22,2.2,2.2,19,0.00,,---,0.00,VWS V14.01,2013-01-22 20:43:00,
2013-01-22 13:48:00,81.5,35.3,27.49,WSW,248,0.0,0.0,19,0.00,,---,0.00,VWS V14.01,2013-01-22 20:48:00,
2013-01-22 13:53:00,81.9,35.6,27.49,North,0,2.7,2.7,19,0.00,,---,0.00,VWS V14.01,2013-01-22 20:53:00,
2013-01-22 13:58:00,81.9,35.6,27.46,NNE,22,4.0,4.0,19,0.00,,---,0.00,VWS V14.01,2013-01-22 20:58:00,
2013-01-22 14:03:00,81.9,35.6,27.46,WSW,248,3.1,3.1,19,0.00,,---,0.00,VWS V14.01,2013-01-22 21:03:00,
2013-01-22 14:08:00,81.3,32.4,27.46,WNW,292,3.6,3.6,17,0.00,,---,0.00,VWS V14.01,2013-01-22 21:08:00,
2013-01-22 14:13:00,81.9,32.8,27.46,WNW,292,0.0,0.0,17,0.00,,---,0.00,VWS V14.01,2013-01-22 21:13:00,
2013-01-22 14:19:00,81.9,32.8,27.46,SSW,202,3.6,3.6,17,0.00,,---,0.00,VWS V14.01,2013-01-22 21:19:00,
2013-01-22 14:24:00,82.0,33.0,27.46,ENE,68,0.0,3.1,17,0.00,,---,0.00,VWS V14.01,2013-01-22 21:24:00,
2013-01-22 14:29:00,82.0,33.0,27.46,NE,45,2.2,2.2,17,0.00,,---,0.00,VWS V14.01,2013-01-22 21:29:00,
2013-01-22 14:33:00,82.0,33.0,27.46,West,270,2.2,2.2,17,0.00,,---,0.00,VWS V14.01,2013-01-22 21:33:00,
2013-01-22 14:38:00,82.0,33.0,27.46,West,270,3.1,3.1,17,0.00,,---,0.00,VWS V14.01,2013-01-22 21:38:00,
2013-01-22 14:43:00,82.4,-27.5,27.46,WNW,292,4.0,4.0,1,0.00,,---,0.00,VWS V14.01,2013-01-22 21:43:00,
2013-01-22 14:48:00,82.2,33.1,27.46,WNW,292,3.1,5.8,17,0.00,,---,0.00,VWS V14.01,2013-01-22 21:48:00,
2013-01-22 14:53:00,82.2,33.1,27.46,SSW,202,0.0,0.0,17,0.00,,---,0.00,VWS V14.01,2013-01-22 21:53:00,
2013-01-22 14:58:00,83.3,32.5,27.46,West,270,3.1,3.1,16,0.00,,---,0.00,VWS V14.01,2013-01-22 21:58:00,
2013-01-22 15:03:00,83.7,32.8,27.46,West,270,5.4,5.4,16,0.00,,---,0.00,VWS V14.01,2013-01-22 22:03:00,
2013-01-22 15:08:00,83.7,32.8,27.46,West,270,3.1,3.1,16,0.00,,---,0.00,VWS V14.01,2013-01-22 22:08:00,
2013-01-22 15:14:00,83.5,32.6,27.46,WSW,248,3.1,3.1,16,0.00,,---,0.00,VWS V14.01,2013-01-22 22:14:00,
2013-01-22 15:19:00,83.5,32.6,27.46,WNW,292,3.1,3.1,16,0.00,,---,0.00,VWS V14.01,2013-01-22 22:19:00,
2013-01-22 15:24:00,83.5,32.6,27.46,WNW,292,2.7,2.7,16,0.00,,---,0.00,VWS V14.01,2013-01-22 22:24:00,
2013-01-22 15:29:00,83.5,32.6,27.46,NNE,22,4.0,4.5,16,0.00,,---,0.00,VWS V14.01,2013-01-22 22:29:00,
2013-01-22 15:34:00,83.5,32.6,27.46,North,0,3.6,3.6,16,0.00,,---,0.00,VWS V14.01,2013-01-22 22:34:00,
2013-01-22 15:39:00,81.9,32.8,27.46,NNE,22,4.0,4.0,17,0.00,,---,0.00,VWS V14.01,2013-01-22 22:39:00,
2013-01-22 15:44:00,81.9,32.8,27.46,NNE,22,4.9,4.9,17,0.00,,---,0.00,VWS V14.01,2013-01-22 22:44:00,
2013-01-22 15:49:00,82.2,33.1,27.46,NNW,338,0.0,2.7,17,0.00,,---,0.00,VWS V14.01,2013-01-22 22:49:00,
2013-01-22 15:54:00,82.6,31.9,27.46,SSW,202,2.2,2.2,16,0.00,,---,0.00,VWS V14.01,2013-01-22 22:54:00,
2013-01-22 15:59:00,82.6,31.9,27.46,WSW,248,0.0,0.0,16,0.00,,---,0.00,VWS V14.01,2013-01-22 22:59:00,
2013-01-22 16:05:00,82.6,31.9,27.46,WNW,292,3.1,3.1,16,0.00,,---,0.00,VWS V14.01,2013-01-22 23:05:00,
2013-01-22 16:10:00,82.0,33.0,27.46,WSW,248,3.6,3.6,17,0.00,,---,0.00,VWS V14.01,2013-01-22 23:10:00,
2013-01-22 16:15:00,82.0,33.0,27.46,SW,225,0.0,0.0,17,0.00,,---,0.00,VWS V14.01,2013-01-22 23:15:00,
2013-01-22 16:20:00,81.5,32.5,27.46,NW,315,2.7,2.7,17,0.00,,---,0.00,VWS V14.01,2013-01-22 23:20:00,
2013-01-22 16:25:00,82.6,31.9,27.46,West,270,0.0,0.0,16,0.00,,---,0.00,VWS V14.01,2013-01-22 23:25:00,
2013-01-22 16:30:00,81.0,32.1,27.46,North,0,5.4,5.4,17,0.00,,---,0.00,VWS V14.01,2013-01-22 23:30:00,
2013-01-22 16:35:00,81.0,32.1,27.46,NE,45,3.1,3.1,17,0.00,,---,0.00,VWS V14.01,2013-01-22 23:35:00,
2013-01-22 16:40:00,81.0,32.1,27.46,NNE,22,4.9,4.9,17,0.00,,---,0.00,VWS V14.01,2013-01-22 23:40:00,
2013-01-22 16:45:00,79.9,31.2,27.46,North,0,4.0,4.0,17,0.00,,---,0.00,VWS V14.01,2013-01-22 23:45:00,
2013-01-22 16:50:00,79.9,31.2,27.46,North,0,2.2,2.2,17,0.00,,---,0.00,VWS V14.01,2013-01-22 23:50:00,
2013-01-22 16:55:00,79.9,31.2,27.46,North,0,0.0,0.0,17,0.00,,---,0.00,VWS V14.01,2013-01-22 23:55:00,
2013-01-22 17:01:00,78.8,30.4,27.46,NNW,338,2.2,2.2,17,0.00,,---,0.00,VWS V14.01,2013-01-23 00:01:00,
2013-01-22 17:06:00,78.8,30.4,27.46,NNW,338,2.2,2.2,17,0.00,,---,0.00,VWS V14.01,2013-01-23 00:06:00,
2013-01-22 17:11:00,78.8,30.4,27.46,West,270,0.0,2.7,17,0.00,,---,0.00,VWS V14.01,2013-01-23 00:11:00,
2013-01-22 17:16:00,78.8,30.4,27.46,NW,315,3.1,3.1,17,0.00,,---,0.00,VWS V14.01,2013-01-23 00:16:00,
2013-01-22 17:21:00,78.8,30.4,27.46,SSW,202,0.0,0.0,17,0.00,,---,0.00,VWS V14.01,2013-01-23 00:21:00,
2013-01-22 17:26:00,77.2,30.4,27.46,NE,45,4.0,4.0,18,0.00,,---,0.00,VWS V14.01,2013-01-23 00:26:00,
2013-01-22 17:32:00,77.2,30.4,27.46,NW,315,4.0,4.0,18,0.00,,---,0.00,VWS V14.01,2013-01-23 00:32:00,
2013-01-22 17:37:00,77.2,30.4,27.46,SE,135,0.0,0.0,18,0.00,,---,0.00,VWS V14.01,2013-01-23 00:37:00,
2013-01-22 17:42:00,74.7,28.4,27.46,WNW,292,2.7,2.7,18,0.00,,---,0.00,VWS V14.01,2013-01-23 00:42:00,
2013-01-22 17:47:00,74.7,28.4,27.46,WNW,292,2.7,2.7,18,0.00,,---,0.00,VWS V14.01,2013-01-23 00:47:00,
2013-01-22 17:52:00,74.7,28.4,27.46,WNW,292,2.2,2.7,18,0.00,,---,0.00,VWS V14.01,2013-01-23 00:52:00,
2013-01-22 17:57:00,74.7,28.4,27.46,NNW,338,2.7,2.7,18,0.00,,---,0.00,VWS V14.01,2013-01-23 00:57:00,
2013-01-22 18:02:00,74.7,28.4,27.46,WNW,292,2.7,2.7,18,0.00,,---,0.00,VWS V14.01,2013-01-23 01:02:00,
2013-01-22 18:07:00,74.7,28.4,27.46,WNW,292,3.1,3.1,18,0.00,,---,0.00,VWS V14.01,2013-01-23 01:07:00,
2013-01-22 18:13:00,74.7,28.4,27.46,WNW,292,2.7,2.7,18,0.00,,---,0.00,VWS V14.01,2013-01-23 01:13:00,
2013-01-22 18:18:00,70.9,26.6,27.46,West,270,2.7,2.7,19,0.00,,---,0.00,VWS V14.01,2013-01-23 01:18:00,
2013-01-22 18:23:00,70.7,26.5,27.46,WNW,292,2.7,3.1,19,0.00,,---,0.00,VWS V14.01,2013-01-23 01:23:00,
2013-01-22 18:28:00,70.7,26.5,27.49,WNW,292,3.1,3.1,19,0.00,,---,0.00,VWS V14.01,2013-01-23 01:28:00,
2013-01-22 18:33:00,69.8,29.3,27.49,WNW,292,2.2,2.2,22,0.00,,---,0.00,VWS V14.01,2013-01-23 01:33:00,
2013-01-22 18:38:00,69.8,29.3,27.49,WNW,292,3.1,3.1,22,0.00,,---,0.00,VWS V14.01,2013-01-23 01:38:00,
2013-01-22 18:43:00,69.1,28.7,27.49,NW,315,3.6,3.6,22,0.00,,---,0.00,VWS V14.01,2013-01-23 01:43:00,
2013-01-22 18:48:00,69.1,28.7,27.49,NNW,338,0.0,0.0,22,0.00,,---,0.00,VWS V14.01,2013-01-23 01:48:00,
2013-01-22 18:53:00,69.1,28.7,27.49,NNE,22,0.0,0.0,22,0.00,,---,0.00,VWS V14.01,2013-01-23 01:53:00,
2013-01-22 18:58:00,69.1,28.7,27.49,WNW,292,0.0,0.0,22,0.00,,---,0.00,VWS V14.01,2013-01-23 01:58:00,
2013-01-22 19:03:00,65.5,26.7,27.49,WNW,292,0.0,0.0,23,0.00,,---,0.00,VWS V14.01,2013-01-23 02:03:00,
2013-01-22 19:08:00,64.8,26.1,27.49,SW,225,0.0,0.0,23,0.00,,---,0.00,VWS V14.01,2013-01-23 02:08:00,
2013-01-22 19:13:00,64.4,25.8,27.49,SSE,158,0.0,0.0,23,0.00,,---,0.00,VWS V14.01,2013-01-23 02:13:00,
2013-01-22 19:19:00,64.4,25.8,27.49,SSE,158,0.0,0.0,23,0.00,,---,0.00,VWS V14.01,2013-01-23 02:19:00,
2013-01-22 19:24:00,63.7,26.2,27.49,NW,315,0.0,0.0,24,0.00,,---,0.00,VWS V14.01,2013-01-23 02:24:00,
2013-01-22 19:29:00,63.7,26.2,27.49,West,270,0.0,0.0,24,0.00,,---,0.00,VWS V14.01,2013-01-23 02:29:00,
2013-01-22 19:34:00,63.7,26.2,27.49,West,270,0.0,0.0,24,0.00,,---,0.00,VWS V14.01,2013-01-23 02:34:00,
2013-01-22 19:39:00,61.7,25.5,27.49,West,270,0.0,0.0,25,0.00,,---,0.00,VWS V14.01,2013-01-23 02:39:00,
2013-01-22 19:44:00,61.7,25.5,27.49,SE,135,0.0,0.0,25,0.00,,---,0.00,VWS V14.01,2013-01-23 02:44:00,
2013-01-22 19:49:00,61.7,25.5,27.49,West,270,0.0,0.0,25,0.00,,---,0.00,VWS V14.01,2013-01-23 02:49:00,
2013-01-22 19:54:00,61.7,25.5,27.49,SSW,202,0.0,0.0,25,0.00,,---,0.00,VWS V14.01,2013-01-23 02:54:00,
2013-01-22 19:59:00,59.2,27.0,27.49,SE,135,0.0,0.0,29,0.00,,---,0.00,VWS V14.01,2013-01-23 02:59:00,
2013-01-22 20:04:00,58.6,27.3,27.49,SSE,158,0.0,0.0,30,0.00,,---,0.00,VWS V14.01,2013-01-23 03:04:00,
2013-01-22 20:09:00,58.6,27.3,27.49,SSW,202,0.0,0.0,30,0.00,,---,0.00,VWS V14.01,2013-01-23 03:09:00,
2013-01-22 20:14:00,58.6,27.3,27.49,SW,225,0.0,0.0,30,0.00,,---,0.00,VWS V14.01,2013-01-23 03:14:00,
2013-01-22 20:20:00,57.7,28.9,27.49,SSW,202,0.0,0.0,33,0.00,,---,0.00,VWS V14.01,2013-01-23 03:20:00,
2013-01-22 20:25:00,57.0,29.7,27.49,SE,135,0.0,0.0,35,0.00,,---,0.00,VWS V14.01,2013-01-23 03:25:00,
2013-01-22 20:30:00,56.7,29.3,27.52,SE,135,0.0,0.0,35,0.00,,---,0.00,VWS V14.01,2013-01-23 03:30:00,
2013-01-22 20:35:00,56.5,29.2,27.52,SE,135,0.0,0.0,35,0.00,,---,0.00,VWS V14.01,2013-01-23 03:35:00,
2013-01-22 20:40:00,56.5,29.2,27.52,SSW,202,0.0,0.0,35,0.00,,---,0.00,VWS V14.01,2013-01-23 03:40:00,
2013-01-22 20:45:00,56.5,29.2,27.49,SSW,202,0.0,0.0,35,0.00,,---,0.00,VWS V14.01,2013-01-23 03:45:00,
2013-01-22 20:50:00,56.5,29.2,27.49,South,180,0.0,0.0,35,0.00,,---,0.00,VWS V14.01,2013-01-23 03:50:00,
2013-01-22 20:55:00,55.0,29.3,27.49,SSE,158,0.0,0.0,37,0.00,,---,0.00,VWS V14.01,2013-01-23 03:55:00,
2013-01-22 21:00:00,55.0,29.3,27.52,South,180,0.0,0.0,37,0.00,,---,0.00,VWS V14.01,2013-01-23 04:00:00,
2013-01-22 21:05:00,55.0,29.3,27.52,ESE,112,0.0,0.0,37,0.00,,---,0.00,VWS V14.01,2013-01-23 04:05:00,
2013-01-22 21:10:00,54.3,28.6,27.52,South,180,0.0,0.0,37,0.00,,---,0.00,VWS V14.01,2013-01-23 04:10:00,
2013-01-22 21:15:00,54.3,28.6,27.52,SSE,158,0.0,0.0,37,0.00,,---,0.00,VWS V14.01,2013-01-23 04:15:00,
2013-01-22 21:21:00,55.8,29.2,27.52,SE,135,2.7,2.7,36,0.00,,---,0.00,VWS V14.01,2013-01-23 04:21:00,
2013-01-22 21:26:00,55.9,28.7,27.52,SSW,202,0.0,0.0,35,0.00,,---,0.00,VWS V14.01,2013-01-23 04:26:00,
2013-01-22 21:31:00,55.9,28.7,27.52,ESE,112,2.7,2.7,35,0.00,,---,0.00,VWS V14.01,2013-01-23 04:31:00,
2013-01-22 21:36:00,55.9,28.7,27.52,South,180,0.0,0.0,35,0.00,,---,0.00,VWS V14.01,2013-01-23 04:36:00,
2013-01-22 21:42:00,55.9,28.7,27.52,SSW,202,0.0,0.0,35,0.00,,---,0.00,VWS V14.01,2013-01-23 04:42:00,
2013-01-22 21:47:00,55.9,28.7,27.52,SW,225,0.0,0.0,35,0.00,,---,0.00,VWS V14.01,2013-01-23 04:47:00,
2013-01-22 21:52:00,56.1,28.1,27.52,ESE,112,0.0,0.0,34,0.00,,---,0.00,VWS V14.01,2013-01-23 04:52:00,
2013-01-22 21:57:00,56.1,28.1,27.52,SW,225,0.0,0.0,34,0.00,,---,0.00,VWS V14.01,2013-01-23 04:57:00,
2013-01-22 22:00:00,56.1,28.1,27.52,SSW,202,0.0,0.0,34,0.00,,---,0.00,VWS V14.01,2013-01-23 05:00:00,
2013-01-22 22:01:00,56.1,28.1,27.52,SSW,202,0.0,0.0,34,0.00,,---,0.00,VWS V14.01,2013-01-23 05:01:00,
2013-01-22 22:02:00,56.1,28.1,27.52,West,270,0.0,0.0,34,0.00,,---,0.00,VWS V14.01,2013-01-23 05:02:00,
2013-01-22 22:03:00,55.2,28.1,27.52,West,270,0.0,0.0,35,0.00,,---,0.00,VWS V14.01,2013-01-23 05:03:00,
2013-01-22 22:08:00,55.0,27.9,27.52,West,270,0.0,0.0,35,0.00,,---,0.00,VWS V14.01,2013-01-23 05:08:00,
2013-01-22 22:13:00,55.0,27.9,27.52,ESE,112,0.0,0.0,35,0.00,,---,0.00,VWS V14.01,2013-01-23 05:13:00,
2013-01-22 22:18:00,54.3,28.0,27.52,WSW,248,0.0,0.0,36,0.00,,---,0.00,VWS V14.01,2013-01-23 05:18:00,
2013-01-22 22:23:00,54.3,28.0,27.52,SSW,202,0.0,0.0,36,0.00,,---,0.00,VWS V14.01,2013-01-23 05:23:00,
2013-01-22 22:28:00,53.2,27.0,27.52,WSW,248,0.0,0.0,36,0.00,,---,0.00,VWS V14.01,2013-01-23 05:28:00,
2013-01-22 22:33:00,53.1,27.5,27.52,South,180,0.0,0.0,37,0.00,,---,0.00,VWS V14.01,2013-01-23 05:33:00,
2013-01-22 22:39:00,52.7,27.2,27.52,East,90,0.0,0.0,37,0.00,,---,0.00,VWS V14.01,2013-01-23 05:39:00,
2013-01-22 22:44:00,52.3,26.9,27.55,SW,225,0.0,0.0,37,0.00,,---,0.00,VWS V14.01,2013-01-23 05:44:00,
2013-01-22 22:49:00,52.0,26.5,27.55,SSE,158,0.0,0.0,37,0.00,,---,0.00,VWS V14.01,2013-01-23 05:49:00,
2013-01-22 22:54:00,52.0,26.5,27.55,SSE,158,0.0,0.0,37,0.00,,---,0.00,VWS V14.01,2013-01-23 05:54:00,
2013-01-22 22:59:00,50.9,26.8,27.55,SSE,158,0.0,0.0,39,0.00,,---,0.00,VWS V14.01,2013-01-23 05:59:00,
2013-01-22 23:04:00,50.9,26.8,27.52,East,90,0.0,0.0,39,0.00,,---,0.00,VWS V14.01,2013-01-23 06:04:00,
2013-01-22 23:09:00,50.9,26.8,27.52,SSW,202,0.0,0.0,39,0.00,,---,0.00,VWS V14.01,2013-01-23 06:09:00,
2013-01-22 23:14:00,50.2,26.8,27.52,SE,135,0.0,0.0,40,0.00,,---,0.00,VWS V14.01,2013-01-23 06:14:00,
2013-01-22 23:19:00,50.2,27.4,27.52,SSW,202,0.0,0.0,41,0.00,,---,0.00,VWS V14.01,2013-01-23 06:19:00,
2013-01-22 23:24:00,50.4,27.0,27.52,SE,135,0.0,0.0,40,0.00,,---,0.00,VWS V14.01,2013-01-23 06:24:00,
2013-01-22 23:29:00,50.4,27.0,27.52,WSW,248,0.0,0.0,40,0.00,,---,0.00,VWS V14.01,2013-01-23 06:29:00,
2013-01-22 23:35:00,49.6,26.9,27.52,ESE,112,0.0,0.0,41,0.00,,---,0.00,VWS V14.01,2013-01-23 06:35:00,
2013-01-22 23:40:00,49.6,26.9,27.52,ESE,112,0.0,0.0,41,0.00,,---,0.00,VWS V14.01,2013-01-23 06:40:00,
2013-01-22 23:45:00,49.6,26.9,27.52,ESE,112,0.0,0.0,41,0.00,,---,0.00,VWS V14.01,2013-01-23 06:45:00,
2013-01-22 23:50:00,48.7,26.7,27.52,SE,135,0.0,0.0,42,0.00,,---,0.00,VWS V14.01,2013-01-23 06:50:00,
2013-01-22 23:55:00,48.9,26.9,27.52,ESE,112,0.0,0.0,42,0.00,,---,0.00,VWS V14.01,2013-01-23 06:55:00,